Terminal Aerodrome Forecast
Issued by NWS Blacksburg, VA

Current Version | Previous Version | Graphics & Text | Print | Product List | Glossary On
Versions: 1 2 3 4 5 6 7 8 9 10 11 12 13 14 15 16 17 18 19 20 21 22 23 24 25 26 27 28 29 30 31 32 33 34
000
FTUS41 KRNK 251729
TAFBLF
TAF
KBLF 251729Z 2518/2618 13008G16KT 5SM -SHRA BR SCT012 OVC020
      TEMPO 2520/2523 SCT007 OVC012
     FM252300 23012KT 3SM -RADZ BR OVC005
      TEMPO 2605/2609 2SM TSRA BR SCT005 OVC012CB
     FM261500 33007KT P6SM BKN007 OVC012=

USA.gov is the U.S. government's official web portal to all federal, state and local government web resources and services.